Delta Virtual Airport Information Service

Washington Ronald Reagan National Airport

ICAO: KDCA Country: United States
Latitude: 38.8521 Longitude: -77.0377
Latest Arrival : AAL1596 (1A) (KRDU-KDCA) Latest Departure : AAL2130 (A) (KDCA-KBOS)


WX CaptureLIVE
Data provided by noaa.gov | Fetched at 12:48:50

METAR : KDCA 241652Z 05003KT 10SM FEW033 SCT090 SCT120 BKN160 23/17 A2995 RMK AO2 SLP143 T02330167

TAF : KDCA 241452Z 2415/2518 VRB04KT P6SM FEW013 BKN090 BKN250 FM241700 32008KT P6SM BKN060 BKN120 FM251200 03007KT P6SM -DZ OVC030 FM251500 03006KT 5SM -RADZ OVC015


Runway Data for KDCA
Data provided by openaviationdata.com

Runway ID Mag Var Hdg Length Elevation Surface ILS Freq ILS Id ILS Slope
1 -10 6875 ft 15 ft Asphalt 109.9 IDCA 3
4 -10 35° 4914 ft 15 ft Asphalt -- -- --
15 -10 152° 5190 ft 15 ft Asphalt -- -- --
19 -10 185° 6875 ft 15 ft Asphalt 109.9 0
22 -10 215° 4914 ft 15 ft Asphalt -- -- --
33 -10 332° 5190 ft 15 ft Asphalt -- -- --

Washington Ronald Reagan National Airport, United States
Use only for reference purposes



Not for navigational purposes.